sensor_id;sensor_type;location;lat;lon;timestamp;pressure;altitude;pressure_sealevel;temperature;humidity
73842;BME280;62184;52.006;5.924;2023-04-03T00:00:36;102294.78;;;5.41;100.00
73842;BME280;62184;52.006;5.924;2023-04-03T00:03:03;102305.34;;;5.40;100.00
73842;BME280;62184;52.006;5.924;2023-04-03T00:05:29;102302.63;;;5.37;100.00
73842;BME280;62184;52.006;5.924;2023-04-03T00:07:55;102307.03;;;5.35;100.00
73842;BME280;62184;52.006;5.924;2023-04-03T00:10:22;102314.94;;;5.33;100.00
73842;BME280;62184;52.006;5.924;2023-04-03T00:12:48;102311.28;;;5.28;100.00
73842;BME280;62184;52.006;5.924;2023-04-03T00:15:15;102319.22;;;5.27;100.00
73842;BME280;62184;52.006;5.924;2023-04-03T00:17:45;102320.25;;;5.33;100.00
73842;BME280;62184;52.006;5.924;2023-04-03T00:20:11;102317.66;;;5.38;100.00
73842;BME280;62184;52.006;5.924;2023-04-03T00:22:38;102309.69;;;5.36;100.00
73842;BME280;62184;52.006;5.924;2023-04-03T00:25:05;102318.34;;;5.28;100.00
73842;BME280;62184;52.006;5.924;2023-04-03T00:27:33;102325.28;;;5.21;100.00
73842;BME280;62184;52.006;5.924;2023-04-03T00:30:03;102326.13;;;5.19;100.00
73842;BME280;62184;52.006;5.924;2023-04-03T00:32:30;102316.34;;;5.16;100.00
73842;BME280;62184;52.006;5.924;2023-04-03T00:34:59;102326.13;;;5.19;100.00
73842;BME280;62184;52.006;5.924;2023-04-03T00:37:25;102327.03;;;5.19;100.00
73842;BME280;62184;52.006;5.924;2023-04-03T00:39:52;102328.59;;;5.11;100.00
73842;BME280;62184;52.006;5.924;2023-04-03T00:42:18;102324.13;;;5.08;100.00
73842;BME280;62184;52.006;5.924;2023-04-03T00:45:22;102323.31;;;5.13;100.00
73842;BME280;62184;52.006;5.924;2023-04-03T00:47:51;102322.44;;;5.12;100.00
73842;BME280;62184;52.006;5.924;2023-04-03T00:50:20;102326.81;;;5.12;100.00
73842;BME280;62184;52.006;5.924;2023-04-03T00:52:47;102322.41;;;5.11;100.00
73842;BME280;62184;52.006;5.924;2023-04-03T00:55:14;102325.88;;;5.08;100.00
73842;BME280;62184;52.006;5.924;2023-04-03T00:57:42;102328.50;;;5.06;100.00
73842;BME280;62184;52.006;5.924;2023-04-03T01:00:13;102329.34;;;5.05;100.00
73842;BME280;62184;52.006;5.924;2023-04-03T01:02:42;102333.72;;;5.03;100.00
73842;BME280;62184;52.006;5.924;2023-04-03T01:05:09;102336.38;;;5.03;100.00
73842;BME280;62184;52.006;5.924;2023-04-03T01:07:40;102340.03;;;5.08;100.00
73842;BME280;62184;52.006;5.924;2023-04-03T01:10:09;102338.31;;;5.12;100.00
73842;BME280;62184;52.006;5.924;2023-04-03T01:12:40;102339.25;;;5.14;100.00
73842;BME280;62184;52.006;5.924;2023-04-03T01:15:11;102346.34;;;5.15;100.00
73842;BME280;62184;52.006;5.924;2023-04-03T01:17:41;102336.72;;;5.19;100.00
73842;BME280;62184;52.006;5.924;2023-04-03T01:20:35;102337.69;;;5.24;100.00
73842;BME280;62184;52.006;5.924;2023-04-03T01:23:46;102338.56;;;5.23;100.00
73842;BME280;62184;52.006;5.924;2023-04-03T01:26:21;102342.00;;;5.19;100.00
73842;BME280;62184;52.006;5.924;2023-04-03T01:28:47;102344.66;;;5.19;100.00
73842;BME280;62184;52.006;5.924;2023-04-03T01:31:19;102339.28;;;5.16;100.00
73842;BME280;62184;52.006;5.924;2023-04-03T01:33:53;102343.63;;;5.12;100.00
73842;BME280;62184;52.006;5.924;2023-04-03T01:36:22;102351.59;;;5.14;100.00
73842;BME280;62184;52.006;5.924;2023-04-03T01:38:50;102344.53;;;5.14;100.00
73842;BME280;62184;52.006;5.924;2023-04-03T01:41:18;102349.06;;;5.20;100.00
73842;BME280;62184;52.006;5.924;2023-04-03T01:43:45;102350.94;;;5.24;100.00
73842;BME280;62184;52.006;5.924;2023-04-03T01:46:12;102349.22;;;5.26;100.00
73842;BME280;62184;52.006;5.924;2023-04-03T01:48:39;102347.47;;;5.28;100.00
73842;BME280;62184;52.006;5.924;2023-04-03T01:51:08;102343.06;;;5.28;100.00
73842;BME280;62184;52.006;5.924;2023-04-03T01:53:35;102348.22;;;5.21;100.00
73842;BME280;62184;52.006;5.924;2023-04-03T01:56:02;102352.63;;;5.20;100.00
73842;BME280;62184;52.006;5.924;2023-04-03T01:58:29;102350.88;;;5.21;100.00
73842;BME280;62184;52.006;5.924;2023-04-03T02:00:56;102357.91;;;5.20;100.00
73842;BME280;62184;52.006;5.924;2023-04-03T02:03:23;102355.34;;;5.23;100.00
73842;BME280;62184;52.006;5.924;2023-04-03T02:05:49;102370.47;;;5.29;100.00
73842;BME280;62184;52.006;5.924;2023-04-03T02:08:18;102359.88;;;5.29;100.00
73842;BME280;62184;52.006;5.924;2023-04-03T02:10:47;102363.41;;;5.29;100.00
73842;BME280;62184;52.006;5.924;2023-04-03T02:13:13;102355.47;;;5.29;100.00
73842;BME280;62184;52.006;5.924;2023-04-03T02:15:40;102352.81;;;5.29;100.00
73842;BME280;62184;52.006;5.924;2023-04-03T02:18:07;102359.94;;;5.32;100.00
73842;BME280;62184;52.006;5.924;2023-04-03T02:20:33;102367.84;;;5.30;100.00
73842;BME280;62184;52.006;5.924;2023-04-03T02:23:00;102370.47;;;5.29;100.00
73842;BME280;62184;52.006;5.924;2023-04-03T02:25:30;102370.47;;;5.29;100.00
73842;BME280;62184;52.006;5.924;2023-04-03T02:27:57;102372.22;;;5.27;100.00
73842;BME280;62184;52.006;5.924;2023-04-03T02:30:24;102365.16;;;5.29;100.00
73842;BME280;62184;52.006;5.924;2023-04-03T02:32:50;102373.09;;;5.27;100.00
73842;BME280;62184;52.006;5.924;2023-04-03T02:35:19;102366.91;;;5.27;100.00
73842;BME280;62184;52.006;5.924;2023-04-03T02:37:46;102365.03;;;5.23;100.00
73842;BME280;62184;52.006;5.924;2023-04-03T02:40:12;102373.00;;;5.23;100.00
73842;BME280;62184;52.006;5.924;2023-04-03T02:42:41;102376.44;;;5.20;100.00
73842;BME280;62184;52.006;5.924;2023-04-03T02:45:09;102371.19;;;5.22;100.00
73842;BME280;62184;52.006;5.924;2023-04-03T02:47:35;102373.84;;;5.22;100.00
73842;BME280;62184;52.006;5.924;2023-04-03T02:50:02;102372.94;;;5.21;100.00
73842;BME280;62184;52.006;5.924;2023-04-03T02:52:29;102370.22;;;5.17;100.00
73842;BME280;62184;52.006;5.924;2023-04-03T02:54:55;102371.94;;;5.15;100.00
73842;BME280;62184;52.006;5.924;2023-04-03T02:57:22;102377.19;;;5.13;100.00
73842;BME280;62184;52.006;5.924;2023-04-03T02:59:51;102375.22;;;5.04;100.00
73842;BME280;62184;52.006;5.924;2023-04-03T03:02:17;102386.75;;;5.06;100.00
73842;BME280;62184;52.006;5.924;2023-04-03T03:04:44;102384.06;;;5.05;100.00
73842;BME280;62184;52.006;5.924;2023-04-03T03:07:10;102377.03;;;5.05;100.00
73842;BME280;62184;52.006;5.924;2023-04-03T03:09:36;102376.06;;;5.02;100.00
73842;BME280;62184;52.006;5.924;2023-04-03T03:12:03;102387.47;;;4.99;100.00
73842;BME280;62184;52.006;5.924;2023-04-03T03:14:30;102390.00;;;4.95;100.00
73842;BME280;62184;52.006;5.924;2023-04-03T03:16:59;102401.44;;;4.92;100.00
73842;BME280;62184;52.006;5.924;2023-04-03T03:19:25;102389.78;;;4.87;100.00
73842;BME280;62184;52.006;5.924;2023-04-03T03:21:52;102401.19;;;4.83;100.00
73842;BME280;62184;52.006;5.924;2023-04-03T03:24:18;102398.50;;;4.82;100.00
73842;BME280;62184;52.006;5.924;2023-04-03T03:26:45;102398.41;;;4.79;100.00
73842;BME280;62184;52.006;5.924;2023-04-03T03:29:11;102391.94;;;4.66;100.00
73842;BME280;62184;52.006;5.924;2023-04-03T03:31:37;102399.84;;;4.64;100.00
73842;BME280;62184;52.006;5.924;2023-04-03T03:34:06;102405.94;;;4.62;100.00
73842;BME280;62184;52.006;5.924;2023-04-03T03:36:33;102404.09;;;4.58;100.00
73842;BME280;62184;52.006;5.924;2023-04-03T03:38:59;102403.06;;;4.53;100.00
73842;BME280;62184;52.006;5.924;2023-04-03T03:41:26;102402.22;;;4.52;100.00
73842;BME280;62184;52.006;5.924;2023-04-03T03:43:52;102403.81;;;4.47;100.00
73842;BME280;62184;52.006;5.924;2023-04-03T03:46:18;102399.34;;;4.43;100.00
73842;BME280;62184;52.006;5.924;2023-04-03T03:48:45;102404.53;;;4.40;100.00
73842;BME280;62184;52.006;5.924;2023-04-03T03:51:14;102408.03;;;4.39;100.00
73842;BME280;62184;52.006;5.924;2023-04-03T03:53:40;102409.69;;;4.34;100.00
73842;BME280;62184;52.006;5.924;2023-04-03T03:56:07;102411.38;;;4.32;100.00
73842;BME280;62184;52.006;5.924;2023-04-03T03:58:33;102405.03;;;4.25;100.00
73842;BME280;62184;52.006;5.924;2023-04-03T04:01:01;102408.44;;;4.21;100.00
73842;BME280;62184;52.006;5.924;2023-04-03T04:03:27;102402.22;;;4.19;100.00
73842;BME280;62184;52.006;5.924;2023-04-03T04:05:54;102405.94;;;4.26;100.00
73842;BME280;62184;52.006;5.924;2023-04-03T04:08:23;102411.25;;;4.27;100.00
73842;BME280;62184;52.006;5.924;2023-04-03T04:10:50;102414.84;;;4.29;100.00
73842;BME280;62184;52.006;5.924;2023-04-03T04:13:16;102415.69;;;4.28;100.00
73842;BME280;62184;52.006;5.924;2023-04-03T04:15:43;102413.03;;;4.28;100.00
73842;BME280;62184;52.006;5.924;2023-04-03T04:18:09;102412.03;;;4.23;100.00
73842;BME280;62184;52.006;5.924;2023-04-03T04:20:36;102412.78;;;4.18;100.00
73842;BME280;62184;52.006;5.924;2023-04-03T04:23:02;102423.38;;;4.19;100.00
73842;BME280;62184;52.006;5.924;2023-04-03T04:25:31;102415.44;;;4.19;100.00
73842;BME280;62184;52.006;5.924;2023-04-03T04:27:58;102415.44;;;4.19;100.00
73842;BME280;62184;52.006;5.924;2023-04-03T04:30:24;102422.47;;;4.17;100.00
73842;BME280;62184;52.006;5.924;2023-04-03T04:32:51;102425.16;;;4.19;100.00
73842;BME280;62184;52.006;5.924;2023-04-03T04:35:17;102422.50;;;4.19;100.00
73842;BME280;62184;52.006;5.924;2023-04-03T04:37:43;102420.56;;;4.13;100.00
73842;BME280;62184;52.006;5.924;2023-04-03T04:40:11;102421.41;;;4.12;100.00
73842;BME280;62184;52.006;5.924;2023-04-03T04:42:40;102419.69;;;4.13;100.00
73842;BME280;62184;52.006;5.924;2023-04-03T04:45:07;102414.38;;;4.13;100.00
73842;BME280;62184;52.006;5.924;2023-04-03T04:47:33;102420.56;;;4.13;100.00
73842;BME280;62184;52.006;5.924;2023-04-03T04:50:00;102438.13;;;4.11;100.00
73842;BME280;62184;52.006;5.924;2023-04-03T04:52:26;102427.50;;;4.08;100.00
73842;BME280;62184;52.006;5.924;2023-04-03T04:54:53;102430.09;;;4.07;100.00
73842;BME280;62184;52.006;5.924;2023-04-03T04:57:19;102434.38;;;4.03;100.00
73842;BME280;62184;52.006;5.924;2023-04-03T04:59:48;102432.59;;;4.02;100.00
73842;BME280;62184;52.006;5.924;2023-04-03T05:02:14;102444.06;;;4.01;100.00
73842;BME280;62184;52.006;5.924;2023-04-03T05:04:41;102438.72;;;4.00;100.00
73842;BME280;62184;52.006;5.924;2023-04-03T05:07:07;102449.28;;;4.00;100.00
73842;BME280;62184;52.006;5.924;2023-04-03T05:09:34;102451.09;;;4.01;100.00
73842;BME280;62184;52.006;5.924;2023-04-03T05:12:01;102448.56;;;4.05;100.00
73842;BME280;62184;52.006;5.924;2023-04-03T05:14:27;102453.84;;;4.05;100.00
73842;BME280;62184;52.006;5.924;2023-04-03T05:16:56;102454.69;;;4.04;100.00
73842;BME280;62184;52.006;5.924;2023-04-03T05:19:23;102455.63;;;4.06;100.00
73842;BME280;62184;52.006;5.924;2023-04-03T05:21:49;102454.84;;;4.09;100.00
73842;BME280;62184;52.006;5.924;2023-04-03T05:24:16;102451.28;;;4.08;100.00
73842;BME280;62184;52.006;5.924;2023-04-03T05:26:42;102459.28;;;4.11;100.00
73842;BME280;62184;52.006;5.924;2023-04-03T05:29:10;102449.59;;;4.10;100.00
73842;BME280;62184;52.006;5.924;2023-04-03T05:31:37;102459.28;;;4.11;100.00
73842;BME280;62184;52.006;5.924;2023-04-03T05:34:06;102467.31;;;4.14;100.00
73842;BME280;62184;52.006;5.924;2023-04-03T05:36:32;102475.41;;;4.19;100.00
73842;BME280;62184;52.006;5.924;2023-04-03T05:38:59;102470.13;;;4.20;100.00
73842;BME280;62184;52.006;5.924;2023-04-03T05:41:25;102475.41;;;4.20;100.00
73842;BME280;62184;52.006;5.924;2023-04-03T05:43:52;102466.63;;;4.21;100.00
73842;BME280;62184;52.006;5.924;2023-04-03T05:46:19;102474.69;;;4.26;100.00
73842;BME280;62184;52.006;5.924;2023-04-03T05:48:46;102475.75;;;4.32;100.00
73842;BME280;62184;52.006;5.924;2023-04-03T05:51:17;102472.25;;;4.33;100.00
73842;BME280;62184;52.006;5.924;2023-04-03T05:53:46;102482.91;;;4.37;100.00
73842;BME280;62184;52.006;5.924;2023-04-03T05:56:14;102473.31;;;4.40;100.00
73842;BME280;62184;52.006;5.924;2023-04-03T05:58:41;102475.22;;;4.46;100.00
73842;BME280;62184;52.006;5.924;2023-04-03T06:01:07;102474.44;;;4.50;100.00
73842;BME280;62184;52.006;5.924;2023-04-03T06:03:33;102485.19;;;4.56;100.00
73842;BME280;62184;52.006;5.924;2023-04-03T06:06:03;102475.59;;;4.59;100.00
73842;BME280;62184;52.006;5.924;2023-04-03T06:08:33;102484.44;;;4.60;100.00
73842;BME280;62184;52.006;5.924;2023-04-03T06:11:00;102490.63;;;4.62;100.00
73842;BME280;62184;52.006;5.924;2023-04-03T06:13:26;102488.06;;;4.65;100.00
73842;BME280;62184;52.006;5.924;2023-04-03T06:15:52;102482.72;;;4.63;100.00
73842;BME280;62184;52.006;5.924;2023-04-03T06:18:19;102481.13;;;4.70;100.00
73842;BME280;62184;52.006;5.924;2023-04-03T06:20:45;102494.69;;;4.82;100.00
73842;BME280;62184;52.006;5.924;2023-04-03T06:23:12;102495.91;;;4.93;100.00
73842;BME280;62184;52.006;5.924;2023-04-03T06:25:41;102494.38;;;5.04;100.00
73842;BME280;62184;52.006;5.924;2023-04-03T06:28:08;102504.25;;;5.10;100.00
73842;BME280;62184;52.006;5.924;2023-04-03T06:30:35;102496.44;;;5.16;100.00
73842;BME280;62184;52.006;5.924;2023-04-03T06:33:02;102505.34;;;5.18;100.00
73842;BME280;62184;52.006;5.924;2023-04-03T06:35:29;102509.69;;;5.16;100.00
73842;BME280;62184;52.006;5.924;2023-04-03T06:37:56;102508.75;;;5.14;100.00
73842;BME280;62184;52.006;5.924;2023-04-03T06:40:24;102501.78;;;5.18;100.00
73842;BME280;62184;52.006;5.924;2023-04-03T06:42:54;102504.50;;;5.21;100.00
73842;BME280;62184;52.006;5.924;2023-04-03T06:45:20;102509.06;;;5.26;100.00
73842;BME280;62184;52.006;5.924;2023-04-03T06:47:47;102509.06;;;5.28;100.00
73842;BME280;62184;52.006;5.924;2023-04-03T06:50:13;102510.00;;;5.30;100.00
73842;BME280;62184;52.006;5.924;2023-04-03T06:52:40;102503.84;;;5.31;100.00
73842;BME280;62184;52.006;5.924;2023-04-03T06:55:07;102511.13;;;5.39;100.00
73842;BME280;62184;52.006;5.924;2023-04-03T06:57:35;102517.31;;;5.40;100.00
73842;BME280;62184;52.006;5.924;2023-04-03T07:00:05;102520.78;;;5.36;100.00
73842;BME280;62184;52.006;5.924;2023-04-03T07:02:33;102522.47;;;5.34;100.00
73842;BME280;62184;52.006;5.924;2023-04-03T07:04:59;102531.56;;;5.45;100.00
73842;BME280;62184;52.006;5.924;2023-04-03T07:07:26;102520.34;;;5.57;100.00
73842;BME280;62184;52.006;5.924;2023-04-03T07:09:53;102529.38;;;5.65;100.00
73842;BME280;62184;52.006;5.924;2023-04-03T07:12:19;102539.97;;;5.65;100.00
73842;BME280;62184;52.006;5.924;2023-04-03T07:14:46;102536.66;;;5.75;100.00
73842;BME280;62184;52.006;5.924;2023-04-03T07:17:15;102536.97;;;5.89;100.00
73842;BME280;62184;52.006;5.924;2023-04-03T07:19:41;102538.88;;;5.96;100.00
73842;BME280;62184;52.006;5.924;2023-04-03T07:22:08;102541.63;;;6.00;100.00
73842;BME280;62184;52.006;5.924;2023-04-03T07:24:34;102555.09;;;6.09;100.00
73842;BME280;62184;52.006;5.924;2023-04-03T07:27:01;102549.06;;;6.16;100.00
73842;BME280;62184;52.006;5.924;2023-04-03T07:29:28;102547.41;;;6.23;100.00
73842;BME280;62184;52.006;5.924;2023-04-03T07:31:54;102552.13;;;6.36;100.00
73842;BME280;62184;52.006;5.924;2023-04-03T07:34:23;102545.81;;;6.31;100.00
73842;BME280;62184;52.006;5.924;2023-04-03T07:36:49;102553.84;;;6.34;100.00
73842;BME280;62184;52.006;5.924;2023-04-03T07:39:16;102553.88;;;6.37;100.00
73842;BME280;62184;52.006;5.924;2023-04-03T07:41:42;102551.44;;;6.48;100.00
73842;BME280;62184;52.006;5.924;2023-04-03T07:44:09;102558.69;;;6.56;100.00
73842;BME280;62184;52.006;5.924;2023-04-03T07:46:35;102566.59;;;6.53;100.00
73842;BME280;62184;52.006;5.924;2023-04-03T07:49:02;102559.34;;;6.43;100.00
73842;BME280;62184;52.006;5.924;2023-04-03T07:51:31;102555.63;;;6.35;100.00
73842;BME280;62184;52.006;5.924;2023-04-03T07:53:57;102560.13;;;6.39;100.00
73842;BME280;62184;52.006;5.924;2023-04-03T07:56:24;102555.81;;;6.46;100.00
73842;BME280;62184;52.006;5.924;2023-04-03T07:58:50;102567.50;;;6.55;100.00
73842;BME280;62184;52.006;5.924;2023-04-03T08:01:17;102560.69;;;6.68;100.00
73842;BME280;62184;52.006;5.924;2023-04-03T08:03:43;102553.81;;;6.81;100.00
73842;BME280;62184;52.006;5.924;2023-04-03T08:06:10;102556.75;;;6.96;100.00
73842;BME280;62184;52.006;5.924;2023-04-03T08:08:39;102558.69;;;7.06;100.00
73842;BME280;62184;52.006;5.924;2023-04-03T08:11:05;102556.22;;;7.17;100.00
73842;BME280;62184;52.006;5.924;2023-04-03T08:13:32;102563.53;;;7.28;100.00
73842;BME280;62184;52.006;5.924;2023-04-03T08:16:07;102565.50;;;7.40;100.00
73842;BME280;62184;52.006;5.924;2023-04-03T08:18:35;102567.47;;;7.52;100.00
73842;BME280;62184;52.006;5.924;2023-04-03T08:21:05;102568.50;;;7.61;100.00
73842;BME280;62184;52.006;5.924;2023-04-03T08:23:32;102571.34;;;7.75;100.00
73842;BME280;62184;52.006;5.924;2023-04-03T08:26:05;102575.16;;;7.92;100.00
73842;BME280;62184;52.006;5.924;2023-04-03T08:28:32;102577.09;;;8.05;100.00
73842;BME280;62184;52.006;5.924;2023-04-03T08:31:03;102579.06;;;8.19;100.00
73842;BME280;62184;52.006;5.924;2023-04-03T08:33:30;102573.06;;;8.38;100.00
73842;BME280;62184;52.006;5.924;2023-04-03T08:35:56;102582.16;;;8.54;100.00
73842;BME280;62184;52.006;5.924;2023-04-03T08:38:23;102573.44;;;8.70;100.00
73842;BME280;62184;52.006;5.924;2023-04-03T08:41:04;102575.34;;;8.83;100.00
73842;BME280;62184;52.006;5.924;2023-04-03T08:43:57;102578.88;;;8.80;100.00
73842;BME280;62184;52.006;5.924;2023-04-03T08:46:38;102583.31;;;8.78;100.00
73842;BME280;62184;52.006;5.924;2023-04-03T08:49:18;102580.69;;;8.83;100.00
73842;BME280;62184;52.006;5.924;2023-04-03T08:51:51;102581.72;;;8.96;100.00
73842;BME280;62184;52.006;5.924;2023-04-03T08:54:26;102576.56;;;9.17;100.00
73842;BME280;62184;52.006;5.924;2023-04-03T08:57:00;102571.31;;;9.23;100.00
73842;BME280;62184;52.006;5.924;2023-04-03T08:59:33;102578.50;;;9.32;100.00
73842;BME280;62184;52.006;5.924;2023-04-03T09:02:04;102577.56;;;9.26;100.00
73842;BME280;62184;52.006;5.924;2023-04-03T09:04:46;102575.78;;;9.25;100.00
73842;BME280;62184;52.006;5.924;2023-04-03T09:07:19;102573.16;;;9.32;100.00
73842;BME280;62184;52.006;5.924;2023-04-03T09:09:55;102582.28;;;9.59;100.00
73842;BME280;62184;52.006;5.924;2023-04-03T09:12:33;102585.94;;;9.80;100.00
73842;BME280;62184;52.006;5.924;2023-04-03T09:15:13;102583.25;;;9.71;100.00
73842;BME280;62184;52.006;5.924;2023-04-03T09:17:53;102585.84;;;9.61;100.00
73842;BME280;62184;52.006;5.924;2023-04-03T09:20:35;102578.69;;;9.57;100.00
73842;BME280;62184;52.006;5.924;2023-04-03T09:23:20;102575.22;;;9.72;100.00
73842;BME280;62184;52.006;5.924;2023-04-03T09:25:53;102571.75;;;9.84;100.00
73842;BME280;62184;52.006;5.924;2023-04-03T09:28:29;102578.94;;;9.94;100.00
73842;BME280;62184;52.006;5.924;2023-04-03T09:31:00;102575.41;;;9.99;100.00
73842;BME280;62184;52.006;5.924;2023-04-03T09:33:27;102579.00;;;10.03;100.00
73842;BME280;62184;52.006;5.924;2023-04-03T09:35:56;102582.63;;;10.20;100.00
73842;BME280;62184;52.006;5.924;2023-04-03T09:38:22;102564.84;;;10.31;100.00
73842;BME280;62184;52.006;5.924;2023-04-03T09:40:49;102579.97;;;10.31;100.00
73842;BME280;62184;52.006;5.924;2023-04-03T09:43:31;102565.81;;;10.43;100.00
73842;BME280;62184;52.006;5.924;2023-04-03T09:46:17;102579.22;;;10.59;100.00
73842;BME280;62184;52.006;5.924;2023-04-03T09:48:57;102572.13;;;10.69;100.00
73842;BME280;62184;52.006;5.924;2023-04-03T09:51:25;102568.56;;;10.70;100.00
73842;BME280;62184;52.006;5.924;2023-04-03T09:53:54;102555.19;;;10.71;100.00
73842;BME280;62184;52.006;5.924;2023-04-03T09:56:23;102560.59;;;10.93;100.00
73842;BME280;62184;52.006;5.924;2023-04-03T09:59:07;102558.81;;;11.05;100.00
73842;BME280;62184;52.006;5.924;2023-04-03T10:01:42;102558.84;;;11.25;100.00
73842;BME280;62184;52.006;5.924;2023-04-03T10:04:22;102563.31;;;11.46;100.00
73842;BME280;62184;52.006;5.924;2023-04-03T10:06:51;102554.34;;;11.56;100.00
73842;BME280;62184;52.006;5.924;2023-04-03T10:09:22;102562.34;;;11.65;100.00
73842;BME280;62184;52.006;5.924;2023-04-03T10:11:59;102569.47;;;11.74;100.00
73842;BME280;62184;52.006;5.924;2023-04-03T10:14:30;102560.59;;;11.58;100.00
73842;BME280;62184;52.006;5.924;2023-04-03T10:17:03;102542.78;;;11.36;100.00
73842;BME280;62184;52.006;5.924;2023-04-03T10:19:41;102557.94;;;11.26;100.00
73842;BME280;62184;52.006;5.924;2023-04-03T10:22:18;102554.38;;;11.12;100.00
73842;BME280;62184;52.006;5.924;2023-04-03T10:24:54;102541.03;;;11.04;100.00
73842;BME280;62184;52.006;5.924;2023-04-03T10:27:36;102546.34;;;11.35;100.00
73842;BME280;62184;52.006;5.924;2023-04-03T10:30:21;102542.75;;;11.57;100.00
73842;BME280;62184;52.006;5.924;2023-04-03T10:33:07;102540.06;;;11.71;100.00
73842;BME280;62184;52.006;5.924;2023-04-03T10:35:48;102527.53;;;11.79;100.00
73842;BME280;62184;52.006;5.924;2023-04-03T10:38:33;102524.78;;;12.14;100.00
73842;BME280;62184;52.006;5.924;2023-04-03T10:41:12;102512.09;;;12.45;100.00
73842;BME280;62184;52.006;5.924;2023-04-03T10:43:51;102520.88;;;12.70;100.00
73842;BME280;62184;52.006;5.924;2023-04-03T10:46:36;102508.41;;;12.64;100.00
73842;BME280;62184;52.006;5.924;2023-04-03T10:49:19;102510.13;;;12.73;100.00
73842;BME280;62184;52.006;5.924;2023-04-03T10:51:59;102502.94;;;12.81;100.00
73842;BME280;62184;52.006;5.924;2023-04-03T10:54:34;102507.34;;;12.88;100.00
73842;BME280;62184;52.006;5.924;2023-04-03T10:57:06;102495.63;;;12.99;100.00
73842;BME280;62184;52.006;5.924;2023-04-03T10:59:37;102502.69;;;13.10;100.00
73842;BME280;62184;52.006;5.924;2023-04-03T11:02:16;102491.94;;;13.11;100.00
73842;BME280;62184;52.006;5.924;2023-04-03T11:04:52;102488.38;;;13.09;100.00
73842;BME280;62184;52.006;5.924;2023-04-03T11:07:27;102494.66;;;13.08;100.00
73842;BME280;62184;52.006;5.924;2023-04-03T11:10:02;102484.03;;;12.96;100.00
73842;BME280;62184;52.006;5.924;2023-04-03T11:12:38;102479.63;;;12.89;100.00
73842;BME280;62184;52.006;5.924;2023-04-03T11:15:12;102473.44;;;12.79;100.00
73842;BME280;62184;52.006;5.924;2023-04-03T11:17:48;102478.94;;;12.64;100.00
73842;BME280;62184;52.006;5.924;2023-04-03T11:20:23;102482.34;;;12.81;100.00
73842;BME280;62184;52.006;5.924;2023-04-03T11:23:00;102476.19;;;12.72;100.00
73842;BME280;62184;52.006;5.924;2023-04-03T11:25:30;102484.25;;;12.72;100.00
73842;BME280;62184;52.006;5.924;2023-04-03T11:28:02;102481.44;;;12.85;100.00
73842;BME280;62184;52.006;5.924;2023-04-03T11:30:37;102485.81;;;12.97;100.00
73842;BME280;62184;52.006;5.924;2023-04-03T11:33:31;102473.19;;;13.08;100.00
73842;BME280;62184;52.006;5.924;2023-04-03T11:36:09;102474.88;;;13.20;100.00
73842;BME280;62184;52.006;5.924;2023-04-03T11:38:43;102476.66;;;13.19;100.00
73842;BME280;62184;52.006;5.924;2023-04-03T11:41:14;102471.16;;;13.31;100.00
73842;BME280;62184;52.006;5.924;2023-04-03T11:43:46;102467.53;;;13.41;100.00
73842;BME280;62184;52.006;5.924;2023-04-03T11:46:51;102466.59;;;13.44;100.00
73842;BME280;62184;52.006;5.924;2023-04-03T11:55:57;102464.34;;;13.84;100.00
73842;BME280;62184;52.006;5.924;2023-04-03T11:58:31;102455.41;;;13.82;100.00
73842;BME280;62184;52.006;5.924;2023-04-03T12:01:02;102448.13;;;13.92;100.00
73842;BME280;62184;52.006;5.924;2023-04-03T12:03:57;102450.56;;;14.10;100.00
73842;BME280;62184;52.006;5.924;2023-04-03T12:07:13;102448.69;;;14.16;100.00
73842;BME280;62184;52.006;5.924;2023-04-03T12:12:58;102443.38;;;14.12;100.00
73842;BME280;62184;52.006;5.924;2023-04-03T12:15:47;102431.75;;;14.11;100.00
73842;BME280;62184;52.006;5.924;2023-04-03T12:18:41;102428.22;;;14.06;100.00
73842;BME280;62184;52.006;5.924;2023-04-03T12:21:10;102433.31;;;14.28;100.00
73842;BME280;62184;52.006;5.924;2023-04-03T12:23:57;102437.81;;;14.26;100.00
73842;BME280;62184;52.006;5.924;2023-04-03T12:26:27;102423.84;;;13.99;100.00
73842;BME280;62184;52.006;5.924;2023-04-03T12:29:02;102440.19;;;13.82;100.00
73842;BME280;62184;52.006;5.924;2023-04-03T12:31:46;102441.06;;;13.83;100.00
73842;BME280;62184;52.006;5.924;2023-04-03T12:34:34;102437.56;;;13.79;100.00
73842;BME280;62184;52.006;5.924;2023-04-03T12:37:24;102438.41;;;13.81;100.00
73842;BME280;62184;52.006;5.924;2023-04-03T12:40:15;102436.59;;;13.84;100.00
73842;BME280;62184;52.006;5.924;2023-04-03T12:45:59;102425.81;;;13.88;100.00
73842;BME280;62184;52.006;5.924;2023-04-03T12:48:31;102419.34;;;14.03;100.00
73842;BME280;62184;52.006;5.924;2023-04-03T12:51:05;102420.16;;;14.06;100.00
73842;BME280;62184;52.006;5.924;2023-04-03T12:53:34;102418.19;;;14.21;100.00
73842;BME280;62184;52.006;5.924;2023-04-03T12:56:27;102407.97;;;14.42;100.00
73842;BME280;62184;52.006;5.924;2023-04-03T12:58:56;102413.38;;;14.41;100.00
73842;BME280;62184;52.006;5.924;2023-04-03T13:01:39;102407.94;;;14.47;100.00
73842;BME280;62184;52.006;5.924;2023-04-03T13:04:06;102405.13;;;14.53;100.00
73842;BME280;62184;52.006;5.924;2023-04-03T13:06:38;102403.47;;;14.46;100.00
73842;BME280;62184;52.006;5.924;2023-04-03T13:09:18;102400.91;;;14.37;100.00
73842;BME280;62184;52.006;5.924;2023-04-03T13:11:50;102391.34;;;14.17;100.00
73842;BME280;62184;52.006;5.924;2023-04-03T13:14:23;102397.56;;;14.21;100.00
73842;BME280;62184;52.006;5.924;2023-04-03T13:16:54;102382.63;;;14.03;100.00
73842;BME280;62184;52.006;5.924;2023-04-03T13:19:23;102384.25;;;14.13;100.00